Latest Weather Observations for Wagga Wagga

IDN60801

Issued at 2:05 pm EST Saturday 30 August 2014 (issued every 30 minutes, with the page automatically refreshed every 10 minutes)

About weather observations | Map of weather stations | Latest weather observations for NSW | Other Formats
Station Details ID: 072150 Name: WAGGA WAGGA AMO Lat: -35.16 Lon: 147.46 Height: 212.0 m
Data from the previous 72 hours. | See also: Recent months at Wagga Wagga
Date/Time
EST
Temp
°C
App
Temp
°C
Dew
Point
Rel
Hum
%
Delta-T
°C
Wind Press
QNH
hPa
Press
MSL
hPa
Rain
since 9 am
mm
Dir
 
Spd
km/h
Gust
km/h
Spd
kts
Gust
kts
30/02:00pm 18.6 15.5 1.3 31 7.8 N 7 13 4 7 1023.0 1023.4 0.0
30/01:30pm 17.6 14.0 0.9 32 7.4 N 9 15 5 8 1023.6 - 0.0
30/01:00pm 17.8 15.2 4.1 40 6.5 E 7 15 4 8 1024.2 1024.5 0.0
30/12:30pm 16.9 13.4 3.6 41 6.2 ENE 11 17 6 9 1024.8 - 0.0
30/12:00pm 15.9 12.3 3.0 42 5.9 ENE 11 17 6 9 1025.3 1025.6 0.0
30/11:30am 15.3 11.4 1.1 38 6.2 ENE 11 15 6 8 1025.9 - 0.0
30/11:00am 15.0 11.7 4.3 48 5.0 NE 11 15 6 8 1026.3 1026.7 0.0
30/10:30am 13.8 11.6 6.1 59 3.7 ESE 7 11 4 6 1026.6 - 0.0
30/10:00am 12.2 9.2 6.1 66 2.9 E 11 15 6 8 1026.8 1027.2 0.0
30/09:30am 11.0 9.1 6.6 74 2.1 ESE 6 9 3 5 1026.8 - 0.0
30/09:00am 9.6 7.4 6.2 79 1.6 E 7 9 4 5 1026.8 1027.2 0.0
30/08:30am 8.3 5.5 5.2 81 1.4 E 9 11 5 6 1026.9 - 0.0
30/08:00am 6.9 5.7 4.4 84 1.1 CALM 0 0 0 0 1026.9 1027.3 0.0
30/07:30am 5.2 2.6 4.0 92 0.5 E 7 9 4 5 1026.7 - 0.0
30/07:00am 3.3 -0.3 3.1 99 0.1 E 11 11 6 6 1026.4 1026.8 0.0
30/06:30am 1.0 -2.6 0.7 98 0.1 ESE 9 11 5 6 1026.3 - 0.0
30/06:22am 1.0 -2.6 0.5 96 0.2 ESE 9 13 5 7 1026.2 - 0.0
30/06:00am 0.5 -1.8 0.2 98 0.1 ENE 2 9 1 5 1026.0 1026.4 0.0
30/05:43am 1.0 -0.9 0.7 98 0.1 CALM 0 2 0 1 1025.9 - 0.0
30/05:30am 1.9 -1.0 1.4 96 0.2 ENE 6 7 3 4 1025.8 - 0.0
30/05:03am 2.5 -0.3 2.2 98 0.1 E 6 7 3 4 1025.7 - 0.0
30/05:00am 2.5 -0.3 2.0 96 0.2 E 6 7 3 4 1025.7 1026.1 0.0
30/04:30am 2.9 -0.5 2.1 94 0.3 E 9 9 5 5 1025.7 - 0.0
30/04:25am 3.5 0.2 2.5 93 0.4 E 9 9 5 5 1025.6 - 0.0
30/04:00am 5.7 2.9 5.0 95 0.3 E 9 9 5 5 1025.5 1025.8 0.0
30/03:30am 5.9 3.1 5.2 95 0.3 E 9 11 5 6 1025.5 - 0.0
30/03:00am 5.9 2.3 4.8 93 0.5 ESE 13 13 7 7 1025.6 1025.9 0.0
30/02:30am 4.4 1.4 3.9 97 0.2 E 9 11 5 6 1025.7 - 0.0
30/02:00am 5.9 3.5 5.2 95 0.3 E 7 9 4 5 1025.7 1026.1 0.0
30/01:30am 4.6 2.0 4.4 99 0.1 E 7 9 4 5 1025.7 - 0.0
30/01:00am 4.7 3.4 4.2 97 0.2 CALM 0 0 0 0 1025.6 1025.9 0.0
30/12:30am 4.7 3.4 4.0 95 0.3 CALM 0 4 0 2 1025.5 - 0.0
30/12:00am 4.7 2.2 3.5 92 0.5 ESE 6 7 3 4 1025.4 1025.7 0.0
 
Date/Time
EST
Temp
°C
App
Temp
°C
Dew
Point
Rel
Hum
%
Delta-T
°C
Wind Press
QNH
hPa
Press
MSL
hPa
Rain
since 9 am
mm
Dir
 
Spd
km/h
Gust
km/h
Spd
kts
Gust
kts
29/11:30pm 6.0 2.8 5.1 94 0.4 E 11 15 6 8 1025.5 - 0.0
29/11:00pm 7.0 4.9 5.7 91 0.6 WSW 6 7 3 4 1025.4 1025.7 0.0
29/10:30pm 6.6 5.2 5.7 94 0.4 WSW 2 9 1 5 1025.6 - 0.0
29/10:00pm 6.0 4.9 4.9 93 0.5 CALM 0 0 0 0 1025.8 1026.2 0.0
29/09:30pm 7.3 6.3 5.7 89 0.7 CALM 0 0 0 0 1025.8 - 0.0
29/09:00pm 7.0 6.1 6.1 94 0.4 CALM 0 0 0 0 1025.8 1026.2 0.0
29/08:30pm 8.2 7.3 6.2 87 0.9 CALM 0 0 0 0 1026.0 - 0.0
29/08:00pm 9.6 8.6 7.5 87 1.0 WSW 2 9 1 5 1025.9 1026.3 0.0
29/07:30pm 10.7 9.1 8.0 83 1.3 WSW 6 7 3 4 1025.7 - 0.0
29/07:00pm 11.1 10.0 8.3 83 1.4 WSW 4 7 2 4 1025.6 1025.9 0.0
29/06:30pm 11.5 9.9 8.0 79 1.7 WSW 6 7 3 4 1025.3 - 0.0
29/06:00pm 14.0 12.4 7.8 66 3.1 W 6 7 3 4 1025.0 1025.3 0.0
29/05:30pm 15.2 12.7 8.3 63 3.5 WSW 11 11 6 6 1024.8 - 0.0
29/05:00pm 16.7 14.2 8.3 57 4.3 WSW 11 13 6 7 1024.7 1025.0 0.0
29/04:30pm 17.2 13.8 7.8 54 4.8 WSW 15 17 8 9 1024.6 - 0.0
29/04:00pm 17.5 14.2 7.9 53 4.9 W 15 19 8 10 1024.7 1025.0 0.0
29/03:30pm 17.5 14.6 8.1 54 4.8 W 13 17 7 9 1024.8 - 0.0
29/03:00pm 17.4 14.7 7.5 52 5.0 W 11 17 6 9 1025.1 1025.4 0.0
29/02:30pm 17.7 15.1 7.9 52 5.0 W 11 17 6 9 1025.4 - 0.0
29/02:00pm 17.3 14.2 7.1 51 5.1 W 13 19 7 10 1025.7 1026.1 0.0
29/01:30pm 17.1 14.6 6.6 50 5.2 WNW 9 11 5 6 1026.0 - 0.0
29/01:00pm 16.7 14.3 6.8 52 4.9 WSW 9 15 5 8 1026.5 1026.9 0.0
29/12:30pm 15.5 13.4 6.5 55 4.4 W 7 13 4 7 1026.9 - 0.0
29/12:00pm 15.3 13.2 6.7 56 4.2 NW 7 13 4 7 1027.5 1027.9 0.0
29/11:30am 14.2 11.8 7.1 62 3.5 NNW 9 13 5 7 1027.8 - 0.0
29/11:00am 14.1 11.9 6.4 60 3.7 N 7 9 4 5 1028.1 1028.5 0.0
29/10:30am 13.5 12.0 6.7 63 3.3 ENE 4 7 2 4 1028.4 - 0.0
29/10:00am 11.6 9.3 5.8 67 2.7 ENE 7 11 4 6 1028.6 1029.0 0.0
29/09:30am 10.4 7.7 5.4 71 2.3 E 9 9 5 5 1028.8 - 0.0
29/09:00am 8.9 6.0 4.4 73 2.0 E 9 11 5 6 1029.1 1029.4 0.0
29/08:30am 8.1 5.1 4.2 76 1.7 E 9 11 5 6 1029.1 - 0.0
29/08:00am 6.4 3.2 3.3 80 1.3 E 9 11 5 6 1028.8 1029.2 0.0
29/07:30am 4.1 1.2 2.6 90 0.6 E 7 9 4 5 1028.7 - 0.0
29/07:00am 1.1 -2.6 0.0 92 0.4 E 9 9 5 5 1028.4 1028.8 0.0
29/06:30am 1.4 -2.2 0.9 96 0.2 E 9 11 5 6 1028.0 - 0.0
29/06:00am 1.6 -2.0 0.8 94 0.3 E 9 9 5 5 1027.8 1028.2 0.0
29/05:30am 1.4 -0.4 0.9 96 0.2 CALM 0 6 0 3 1027.7 - 0.0
29/05:00am 1.1 -0.9 0.0 92 0.4 CALM 0 7 0 4 1027.4 1027.8 0.0
29/04:30am 1.3 -1.7 0.5 94 0.3 E 6 7 3 4 1027.4 - 0.0
29/04:00am 1.3 -0.7 0.2 92 0.4 CALM 0 0 0 0 1027.4 1027.8 0.0
29/03:30am 2.5 -0.9 1.7 94 0.3 E 9 11 5 6 1027.4 - 0.0
29/03:00am 2.2 -0.4 0.9 91 0.5 W 4 9 2 5 1027.4 1027.8 0.0
29/02:30am 2.9 -0.1 2.1 94 0.3 W 7 9 4 5 1027.6 - 0.0
29/02:00am 4.1 0.8 2.4 89 0.7 E 9 11 5 6 1027.5 1027.9 0.0
29/01:30am 5.2 1.6 3.0 86 0.9 E 11 13 6 7 1027.7 - 0.0
29/01:00am 3.9 2.3 2.7 92 0.5 CALM 0 0 0 0 1028.0 1028.4 0.0
29/12:30am 3.1 1.5 2.6 96 0.2 CALM 0 0 0 0 1028.0 - 0.0
29/12:00am 3.2 0.8 1.9 91 0.5 N 4 7 2 4 1028.0 1028.4 0.0
 
Date/Time
EST
Temp
°C
App
Temp
°C
Dew
Point
Rel
Hum
%
Delta-T
°C
Wind Press
QNH
hPa
Press
MSL
hPa
Rain
since 9 am
mm
Dir
 
Spd
km/h
Gust
km/h
Spd
kts
Gust
kts
28/11:30pm 5.5 2.3 3.3 86 0.9 ESE 9 11 5 6 1028.1 - 0.0
28/11:00pm 6.1 4.8 4.0 86 0.9 CALM 0 0 0 0 1028.1 1028.5 0.0
28/10:30pm 5.9 4.5 3.8 86 0.9 CALM 0 0 0 0 1028.1 - 0.0
28/10:00pm 5.7 4.3 3.8 87 0.8 CALM 0 0 0 0 1028.2 1028.6 0.0
28/09:30pm 6.0 4.5 3.1 82 1.2 CALM 0 0 0 0 1028.3 - 0.0
28/09:00pm 7.6 6.5 4.9 83 1.2 CALM 0 0 0 0 1028.2 1028.6 0.0
28/08:30pm 7.3 5.2 4.1 80 1.4 ENE 4 6 2 3 1028.1 - 0.0
28/08:00pm 8.9 7.2 4.1 72 2.1 ENE 2 7 1 4 1027.9 1028.3 0.0
28/07:30pm 9.8 7.5 4.7 70 2.3 ENE 6 7 3 4 1027.7 - 0.0
28/07:00pm 9.5 6.3 5.1 74 2.0 SSW 11 11 6 6 1027.6 1028.0 0.0
28/06:30pm 10.8 8.1 5.4 69 2.5 SSW 9 11 5 6 1027.4 - 0.0
28/06:00pm 12.3 9.7 6.2 66 2.9 SSW 9 9 5 5 1027.1 1027.5 0.0
28/05:30pm 14.3 11.5 5.2 54 4.3 SW 9 9 5 5 1026.8 - 0.0
28/05:00pm 16.4 13.5 4.6 45 5.6 SW 9 13 5 7 1026.7 1027.1 0.0
28/04:30pm 17.2 14.7 4.9 44 5.9 WSW 7 13 4 7 1026.5 - 0.0
28/04:00pm 18.5 15.6 4.6 40 6.7 SSE 9 11 5 6 1026.4 1026.8 0.0
28/03:30pm 18.1 16.0 3.7 38 6.8 SE 4 9 2 5 1026.5 - 0.0
28/03:00pm 17.8 16.2 4.7 42 6.3 W 2 7 1 4 1026.5 1026.9 0.0
28/02:30pm 17.6 15.1 3.8 40 6.5 SSW 6 11 3 6 1026.6 - 0.0
28/02:00pm 17.3 15.4 3.0 38 6.6 S 2 9 1 5 1026.9 1027.3 0.0
28/01:30pm 17.2 14.7 4.6 43 6.0 WSW 7 11 4 6 1027.1 - 0.0
28/01:00pm 16.4 13.9 4.0 43 5.8 SE 6 11 3 6 1027.5 1027.9 0.0
28/12:30pm 16.7 14.3 5.3 47 5.5 E 7 11 4 6 1027.8 - 0.0
28/12:00pm 16.4 13.3 3.7 42 5.9 E 9 15 5 8 1028.3 1028.7 0.0
28/11:30am 16.2 14.4 5.4 48 5.2 WNW 4 9 2 5 1028.7 - 0.0
28/11:00am 15.1 13.2 6.7 57 4.1 NE 6 9 3 5 1029.1 1029.4 0.0
28/10:30am 13.8 11.5 5.8 58 3.8 ENE 7 9 4 5 1029.3 - 0.0
28/10:00am 12.9 10.0 4.4 56 3.9 E 9 13 5 7 1029.4 1029.7 0.0
28/09:30am 11.3 8.5 5.0 65 2.9 E 9 11 5 6 1029.5 - 0.0
28/09:00am 9.7 6.1 4.8 71 2.2 E 13 15 7 8 1029.6 1029.9 0.0
28/08:30am 8.0 4.6 3.8 75 1.8 E 11 13 6 7 1029.5 - 0.0
28/08:00am 6.8 5.4 3.5 79 1.4 CALM 0 0 0 0 1029.4 1029.7 0.0
28/07:30am 3.5 1.1 2.2 91 0.5 ENE 4 7 2 4 1029.0 - 0.0
28/07:24am 2.9 0.1 1.9 93 0.4 ENE 6 9 3 5 1028.8 - 0.0
28/07:00am 2.9 -0.5 1.9 93 0.4 E 9 11 5 6 1028.5 1028.9 0.0
28/06:30am 2.5 -0.5 1.7 94 0.3 ESE 7 7 4 4 1028.4 - 0.0
28/06:00am 3.1 1.4 2.1 93 0.4 CALM 0 0 0 0 1028.0 1028.4 0.0
28/05:30am 3.3 -0.1 1.8 90 0.6 ESE 9 11 5 6 1027.8 - 0.0
28/05:00am 4.2 0.6 3.0 92 0.5 ESE 11 11 6 6 1027.6 1028.0 0.0
28/04:30am 3.8 0.1 2.6 92 0.5 ESE 11 13 6 7 1027.6 - 0.0
28/04:00am 4.2 1.3 2.5 89 0.7 SE 7 9 4 5 1027.6 1028.0 0.0
28/03:30am 2.0 -1.5 1.2 94 0.3 SW 9 13 5 7 1027.5 - 0.0
28/03:00am 3.8 2.2 2.6 92 0.5 CALM 0 4 0 2 1027.4 1027.8 0.0
28/02:30am 4.5 1.3 2.8 89 0.7 ESE 9 11 5 6 1027.5 - 0.0
28/02:00am 3.7 -0.3 3.0 95 0.3 ESE 13 13 7 7 1027.4 1027.8 0.0
28/01:30am 3.1 1.5 2.3 94 0.3 CALM 0 0 0 0 1027.5 - 0.0
28/01:00am 4.7 3.3 3.5 92 0.5 CALM 0 0 0 0 1027.5 1027.9 0.0
28/12:30am 3.8 1.5 2.8 93 0.4 ESE 4 6 2 3 1027.5 - 0.0
28/12:00am 4.2 2.7 3.0 92 0.5 CALM 0 0 0 0 1027.4 1027.8 0.0
 
Date/Time
EST
Temp
°C
App
Temp
°C
Dew
Point
Rel
Hum
%
Delta-T
°C
Wind Press
QNH
hPa
Press
MSL
hPa
Rain
since 9 am
mm
Dir
 
Spd
km/h
Gust
km/h
Spd
kts
Gust
kts
27/11:30pm 4.9 2.2 3.5 91 0.6 E 7 9 4 5 1027.5 - 0.0
27/11:00pm 6.1 2.7 4.0 86 0.9 ESE 11 13 6 7 1027.4 1027.8 0.0
27/10:30pm 7.3 4.1 5.3 87 0.9 E 11 15 6 8 1027.4 - 0.0
27/10:00pm 6.8 5.6 4.7 86 0.9 CALM 0 0 0 0 1027.2 1027.6 0.0
27/09:30pm 7.2 4.9 4.9 85 1.0 W 6 9 3 5 1027.1 - 0.0
27/09:00pm 8.2 7.1 5.1 81 1.4 CALM 0 0 0 0 1027.0 1027.4 0.0
27/08:30pm 7.6 6.4 4.4 80 1.4 CALM 0 0 0 0 1026.7 - 0.0
27/08:00pm 9.5 8.5 5.8 78 1.7 CALM 0 0 0 0 1026.6 1027.0 0.0
27/07:30pm 8.2 7.1 5.3 82 1.3 CALM 0 0 0 0 1026.5 - 0.0
27/07:00pm 11.7 10.7 5.7 66 2.8 CALM 0 0 0 0 1026.2 1026.6 0.0
27/06:30pm 11.6 9.5 6.6 71 2.4 W 7 11 4 6 1026.2 - 0.0
27/06:00pm 14.6 12.4 6.3 57 4.0 N 7 9 4 5 1025.9 1026.3 0.0
27/05:30pm 15.7 13.4 5.5 50 4.9 NNE 7 9 4 5 1025.7 - 0.0
27/05:00pm 16.7 15.0 5.8 48 5.3 ENE 4 9 2 5 1025.5 1025.8 0.0
27/04:30pm 17.3 14.9 4.5 42 6.1 ESE 6 9 3 5 1025.3 - 0.0
27/04:00pm 18.2 15.9 5.0 41 6.4 S 6 11 3 6 1025.2 1025.5 0.0
27/03:30pm 18.0 15.2 5.0 42 6.3 E 9 15 5 8 1025.2 - 0.0
27/03:00pm 17.5 15.0 4.5 42 6.2 E 7 13 4 7 1025.3 1025.6 0.0
27/02:30pm 17.8 15.0 5.2 43 6.1 E 9 15 5 8 1025.4 - 0.0

Other Formats:

Comma delimited format used in spreadsheet applications
http://www.bom.gov.au/fwo/IDN60801/IDN60801.94910.axf

JavaScript Object Notation format (JSON) in row-major order
http://www.bom.gov.au/fwo/IDN60801/IDN60801.94910.json